sensor_id;sensor_type;location;lat;lon;timestamp;P1;durP1;ratioP1;P2;durP2;ratioP2
14276;SDS011;7222;57.346;12.150;2023-05-19T00:02:17;3.20;;;2.57;;
14276;SDS011;7222;57.346;12.150;2023-05-19T00:04:45;2.17;;;1.97;;
14276;SDS011;7222;57.346;12.150;2023-05-19T00:07:14;2.40;;;2.20;;
14276;SDS011;7222;57.346;12.150;2023-05-19T00:09:43;4.80;;;2.90;;
14276;SDS011;7222;57.346;12.150;2023-05-19T00:12:11;3.03;;;2.13;;
14276;SDS011;7222;57.346;12.150;2023-05-19T00:14:39;3.23;;;1.97;;
14276;SDS011;7222;57.346;12.150;2023-05-19T00:17:09;2.40;;;2.20;;
14276;SDS011;7222;57.346;12.150;2023-05-19T00:19:36;2.83;;;2.20;;
14276;SDS011;7222;57.346;12.150;2023-05-19T00:22:03;3.03;;;2.23;;
14276;SDS011;7222;57.346;12.150;2023-05-19T00:24:30;2.43;;;2.27;;
14276;SDS011;7222;57.346;12.150;2023-05-19T00:26:57;2.83;;;2.10;;
14276;SDS011;7222;57.346;12.150;2023-05-19T00:29:24;2.33;;;2.10;;
14276;SDS011;7222;57.346;12.150;2023-05-19T00:31:50;2.40;;;2.20;;
14276;SDS011;7222;57.346;12.150;2023-05-19T00:34:19;3.40;;;2.20;;
14276;SDS011;7222;57.346;12.150;2023-05-19T00:36:45;3.27;;;2.70;;
14276;SDS011;7222;57.346;12.150;2023-05-19T00:39:12;3.13;;;2.20;;
14276;SDS011;7222;57.346;12.150;2023-05-19T00:41:39;2.60;;;2.40;;
14276;SDS011;7222;57.346;12.150;2023-05-19T00:44:06;3.67;;;2.43;;
14276;SDS011;7222;57.346;12.150;2023-05-19T00:46:33;4.47;;;2.40;;
14276;SDS011;7222;57.346;12.150;2023-05-19T00:49:01;3.10;;;2.57;;
14276;SDS011;7222;57.346;12.150;2023-05-19T00:51:30;2.67;;;2.47;;
14276;SDS011;7222;57.346;12.150;2023-05-19T00:53:57;2.63;;;2.43;;
14276;SDS011;7222;57.346;12.150;2023-05-19T00:56:24;3.07;;;2.57;;
14276;SDS011;7222;57.346;12.150;2023-05-19T00:58:51;2.77;;;2.20;;
14276;SDS011;7222;57.346;12.150;2023-05-19T01:01:20;3.10;;;2.37;;
14276;SDS011;7222;57.346;12.150;2023-05-19T01:03:47;3.07;;;2.30;;
14276;SDS011;7222;57.346;12.150;2023-05-19T01:06:15;2.60;;;2.40;;
14276;SDS011;7222;57.346;12.150;2023-05-19T01:08:44;3.37;;;2.57;;
14276;SDS011;7222;57.346;12.150;2023-05-19T01:11:11;2.80;;;2.33;;
14276;SDS011;7222;57.346;12.150;2023-05-19T01:13:38;2.50;;;2.30;;
14276;SDS011;7222;57.346;12.150;2023-05-19T01:16:06;2.73;;;2.20;;
14276;SDS011;7222;57.346;12.150;2023-05-19T01:18:40;3.20;;;2.10;;
14276;SDS011;7222;57.346;12.150;2023-05-19T01:21:25;2.63;;;2.17;;
14276;SDS011;7222;57.346;12.150;2023-05-19T01:24:15;2.50;;;2.30;;
14276;SDS011;7222;57.346;12.150;2023-05-19T01:27:08;3.33;;;2.30;;
14276;SDS011;7222;57.346;12.150;2023-05-19T01:29:54;3.50;;;2.20;;
14276;SDS011;7222;57.346;12.150;2023-05-19T01:32:49;2.30;;;2.10;;
14276;SDS011;7222;57.346;12.150;2023-05-19T01:35:18;2.80;;;2.60;;
14276;SDS011;7222;57.346;12.150;2023-05-19T01:37:48;2.87;;;2.53;;
14276;SDS011;7222;57.346;12.150;2023-05-19T01:40:17;2.90;;;2.23;;
14276;SDS011;7222;57.346;12.150;2023-05-19T01:42:44;2.40;;;2.20;;
14276;SDS011;7222;57.346;12.150;2023-05-19T01:45:12;3.67;;;2.73;;
14276;SDS011;7222;57.346;12.150;2023-05-19T01:47:41;2.60;;;2.40;;
14276;SDS011;7222;57.346;12.150;2023-05-19T01:50:09;3.90;;;2.93;;
14276;SDS011;7222;57.346;12.150;2023-05-19T01:52:36;3.10;;;2.80;;
14276;SDS011;7222;57.346;12.150;2023-05-19T01:55:04;2.50;;;2.30;;
14276;SDS011;7222;57.346;12.150;2023-05-19T01:57:32;2.87;;;2.63;;
14276;SDS011;7222;57.346;12.150;2023-05-19T02:00:09;3.07;;;2.77;;
14276;SDS011;7222;57.346;12.150;2023-05-19T02:02:48;3.47;;;2.77;;
14276;SDS011;7222;57.346;12.150;2023-05-19T02:05:21;2.73;;;2.20;;
14276;SDS011;7222;57.346;12.150;2023-05-19T02:07:55;3.13;;;2.93;;
14276;SDS011;7222;57.346;12.150;2023-05-19T02:10:27;2.20;;;2.00;;
14276;SDS011;7222;57.346;12.150;2023-05-19T02:12:57;2.97;;;2.77;;
14276;SDS011;7222;57.346;12.150;2023-05-19T02:15:27;2.47;;;2.27;;
14276;SDS011;7222;57.346;12.150;2023-05-19T02:18:00;2.63;;;2.43;;
14276;SDS011;7222;57.346;12.150;2023-05-19T02:20:28;2.50;;;2.30;;
14276;SDS011;7222;57.346;12.150;2023-05-19T02:22:55;3.23;;;2.47;;
14276;SDS011;7222;57.346;12.150;2023-05-19T02:25:22;4.07;;;2.60;;
14276;SDS011;7222;57.346;12.150;2023-05-19T02:27:49;5.07;;;2.53;;
14276;SDS011;7222;57.346;12.150;2023-05-19T02:30:16;3.87;;;2.77;;
14276;SDS011;7222;57.346;12.150;2023-05-19T02:32:44;2.50;;;2.30;;
14276;SDS011;7222;57.346;12.150;2023-05-19T02:35:12;3.47;;;2.60;;
14276;SDS011;7222;57.346;12.150;2023-05-19T02:37:39;2.77;;;2.50;;
14276;SDS011;7222;57.346;12.150;2023-05-19T02:40:07;2.90;;;2.30;;
14276;SDS011;7222;57.346;12.150;2023-05-19T02:42:34;3.57;;;2.70;;
14276;SDS011;7222;57.346;12.150;2023-05-19T02:45:02;4.17;;;2.97;;
14276;SDS011;7222;57.346;12.150;2023-05-19T02:47:29;2.90;;;2.60;;
14276;SDS011;7222;57.346;12.150;2023-05-19T02:49:56;2.80;;;2.60;;
14276;SDS011;7222;57.346;12.150;2023-05-19T02:52:24;2.63;;;2.40;;
14276;SDS011;7222;57.346;12.150;2023-05-19T02:54:51;3.93;;;2.60;;
14276;SDS011;7222;57.346;12.150;2023-05-19T02:57:18;3.40;;;2.30;;
14276;SDS011;7222;57.346;12.150;2023-05-19T02:59:46;3.03;;;2.30;;
14276;SDS011;7222;57.346;12.150;2023-05-19T03:02:12;3.60;;;2.47;;
14276;SDS011;7222;57.346;12.150;2023-05-19T03:04:39;2.43;;;2.23;;
14276;SDS011;7222;57.346;12.150;2023-05-19T03:07:07;3.07;;;2.67;;
14276;SDS011;7222;57.346;12.150;2023-05-19T03:09:38;2.40;;;2.20;;
14276;SDS011;7222;57.346;12.150;2023-05-19T03:12:05;2.70;;;2.20;;
14276;SDS011;7222;57.346;12.150;2023-05-19T03:14:32;2.43;;;2.23;;
14276;SDS011;7222;57.346;12.150;2023-05-19T03:17:01;2.97;;;2.50;;
14276;SDS011;7222;57.346;12.150;2023-05-19T03:19:28;2.60;;;2.40;;
14276;SDS011;7222;57.346;12.150;2023-05-19T03:21:56;2.63;;;2.43;;
14276;SDS011;7222;57.346;12.150;2023-05-19T03:24:23;2.50;;;2.20;;
14276;SDS011;7222;57.346;12.150;2023-05-19T03:26:51;2.60;;;2.30;;
14276;SDS011;7222;57.346;12.150;2023-05-19T03:29:18;3.13;;;2.50;;
14276;SDS011;7222;57.346;12.150;2023-05-19T03:31:45;5.17;;;2.73;;
14276;SDS011;7222;57.346;12.150;2023-05-19T03:34:12;3.60;;;2.47;;
14276;SDS011;7222;57.346;12.150;2023-05-19T03:36:39;3.87;;;2.53;;
14276;SDS011;7222;57.346;12.150;2023-05-19T03:39:06;3.73;;;2.73;;
14276;SDS011;7222;57.346;12.150;2023-05-19T03:41:33;2.50;;;2.30;;
14276;SDS011;7222;57.346;12.150;2023-05-19T03:44:01;3.23;;;2.57;;
14276;SDS011;7222;57.346;12.150;2023-05-19T03:46:28;2.47;;;1.80;;
14276;SDS011;7222;57.346;12.150;2023-05-19T03:48:55;2.50;;;2.30;;
14276;SDS011;7222;57.346;12.150;2023-05-19T03:51:22;2.83;;;2.63;;
14276;SDS011;7222;57.346;12.150;2023-05-19T03:53:50;3.83;;;2.30;;
14276;SDS011;7222;57.346;12.150;2023-05-19T03:56:17;2.60;;;2.40;;
14276;SDS011;7222;57.346;12.150;2023-05-19T03:58:47;4.50;;;2.67;;
14276;SDS011;7222;57.346;12.150;2023-05-19T04:01:15;3.23;;;2.93;;
14276;SDS011;7222;57.346;12.150;2023-05-19T04:03:42;5.07;;;3.47;;
14276;SDS011;7222;57.346;12.150;2023-05-19T04:06:09;4.13;;;3.17;;
14276;SDS011;7222;57.346;12.150;2023-05-19T04:08:37;4.70;;;3.63;;
14276;SDS011;7222;57.346;12.150;2023-05-19T04:11:04;4.13;;;3.73;;
14276;SDS011;7222;57.346;12.150;2023-05-19T04:13:31;6.70;;;4.20;;
14276;SDS011;7222;57.346;12.150;2023-05-19T04:15:58;6.00;;;4.30;;
14276;SDS011;7222;57.346;12.150;2023-05-19T04:18:27;7.43;;;4.10;;
14276;SDS011;7222;57.346;12.150;2023-05-19T04:20:53;4.57;;;4.00;;
14276;SDS011;7222;57.346;12.150;2023-05-19T04:23:20;7.20;;;4.27;;
14276;SDS011;7222;57.346;12.150;2023-05-19T04:25:47;4.87;;;3.83;;
14276;SDS011;7222;57.346;12.150;2023-05-19T04:28:14;6.33;;;4.20;;
14276;SDS011;7222;57.346;12.150;2023-05-19T04:30:41;6.17;;;4.37;;
14276;SDS011;7222;57.346;12.150;2023-05-19T04:33:10;6.07;;;4.97;;
14276;SDS011;7222;57.346;12.150;2023-05-19T04:35:39;5.10;;;4.60;;
14276;SDS011;7222;57.346;12.150;2023-05-19T04:38:07;5.47;;;4.87;;
14276;SDS011;7222;57.346;12.150;2023-05-19T04:40:36;6.27;;;4.87;;
14276;SDS011;7222;57.346;12.150;2023-05-19T04:43:05;7.83;;;5.90;;
14276;SDS011;7222;57.346;12.150;2023-05-19T04:45:33;9.83;;;5.87;;
14276;SDS011;7222;57.346;12.150;2023-05-19T04:48:01;10.53;;;6.57;;
14276;SDS011;7222;57.346;12.150;2023-05-19T04:50:29;9.30;;;7.20;;
14276;SDS011;7222;57.346;12.150;2023-05-19T04:52:57;11.30;;;6.70;;
14276;SDS011;7222;57.346;12.150;2023-05-19T04:55:24;11.27;;;6.67;;
14276;SDS011;7222;57.346;12.150;2023-05-19T04:57:51;11.27;;;7.63;;
14276;SDS011;7222;57.346;12.150;2023-05-19T05:00:19;14.77;;;7.43;;
14276;SDS011;7222;57.346;12.150;2023-05-19T05:02:46;15.20;;;8.27;;
14276;SDS011;7222;57.346;12.150;2023-05-19T05:05:14;13.03;;;7.87;;
14276;SDS011;7222;57.346;12.150;2023-05-19T05:07:41;13.20;;;8.93;;
14276;SDS011;7222;57.346;12.150;2023-05-19T05:10:10;13.30;;;9.00;;
14276;SDS011;7222;57.346;12.150;2023-05-19T05:12:37;17.63;;;9.57;;
14276;SDS011;7222;57.346;12.150;2023-05-19T05:15:05;14.70;;;8.63;;
14276;SDS011;7222;57.346;12.150;2023-05-19T05:17:34;17.10;;;9.73;;
14276;SDS011;7222;57.346;12.150;2023-05-19T05:20:01;15.97;;;10.03;;
14276;SDS011;7222;57.346;12.150;2023-05-19T05:22:30;16.87;;;9.37;;
14276;SDS011;7222;57.346;12.150;2023-05-19T05:24:57;14.53;;;9.23;;
14276;SDS011;7222;57.346;12.150;2023-05-19T05:27:26;17.10;;;11.40;;
14276;SDS011;7222;57.346;12.150;2023-05-19T05:29:53;18.17;;;12.00;;
14276;SDS011;7222;57.346;12.150;2023-05-19T05:32:20;21.70;;;12.90;;
14276;SDS011;7222;57.346;12.150;2023-05-19T05:34:47;19.37;;;12.50;;
14276;SDS011;7222;57.346;12.150;2023-05-19T05:37:14;20.00;;;14.03;;
14276;SDS011;7222;57.346;12.150;2023-05-19T05:39:41;20.03;;;13.73;;
14276;SDS011;7222;57.346;12.150;2023-05-19T05:42:09;21.93;;;13.17;;
14276;SDS011;7222;57.346;12.150;2023-05-19T05:44:37;19.07;;;11.73;;
14276;SDS011;7222;57.346;12.150;2023-05-19T05:47:04;15.90;;;10.77;;
14276;SDS011;7222;57.346;12.150;2023-05-19T05:49:32;13.27;;;9.47;;
14276;SDS011;7222;57.346;12.150;2023-05-19T05:52:02;12.00;;;9.07;;
14276;SDS011;7222;57.346;12.150;2023-05-19T05:54:30;15.83;;;8.90;;
14276;SDS011;7222;57.346;12.150;2023-05-19T05:56:58;14.97;;;7.77;;
14276;SDS011;7222;57.346;12.150;2023-05-19T05:59:26;8.67;;;6.60;;
14276;SDS011;7222;57.346;12.150;2023-05-19T06:01:55;8.13;;;6.03;;
14276;SDS011;7222;57.346;12.150;2023-05-19T06:04:21;6.93;;;5.90;;
14276;SDS011;7222;57.346;12.150;2023-05-19T06:06:49;4.23;;;3.83;;
14276;SDS011;7222;57.346;12.150;2023-05-19T06:09:17;4.27;;;3.60;;
14276;SDS011;7222;57.346;12.150;2023-05-19T06:11:44;5.53;;;2.40;;
14276;SDS011;7222;57.346;12.150;2023-05-19T06:14:11;1.90;;;1.67;;
14276;SDS011;7222;57.346;12.150;2023-05-19T06:16:38;3.93;;;2.00;;
14276;SDS011;7222;57.346;12.150;2023-05-19T06:19:06;4.57;;;1.80;;
14276;SDS011;7222;57.346;12.150;2023-05-19T06:21:33;3.17;;;1.70;;
14276;SDS011;7222;57.346;12.150;2023-05-19T06:24:00;3.00;;;2.07;;
14276;SDS011;7222;57.346;12.150;2023-05-19T06:26:27;3.17;;;2.10;;
14276;SDS011;7222;57.346;12.150;2023-05-19T06:28:54;3.37;;;2.30;;
14276;SDS011;7222;57.346;12.150;2023-05-19T06:31:21;4.60;;;2.20;;
14276;SDS011;7222;57.346;12.150;2023-05-19T06:33:50;2.63;;;2.27;;
14276;SDS011;7222;57.346;12.150;2023-05-19T06:36:19;3.70;;;2.40;;
14276;SDS011;7222;57.346;12.150;2023-05-19T06:38:46;3.93;;;2.10;;
14276;SDS011;7222;57.346;12.150;2023-05-19T06:41:13;3.57;;;2.30;;
14276;SDS011;7222;57.346;12.150;2023-05-19T06:43:40;3.87;;;2.63;;
14276;SDS011;7222;57.346;12.150;2023-05-19T06:46:08;5.97;;;2.73;;
14276;SDS011;7222;57.346;12.150;2023-05-19T06:48:37;6.27;;;2.90;;
14276;SDS011;7222;57.346;12.150;2023-05-19T06:51:03;6.13;;;2.57;;
14276;SDS011;7222;57.346;12.150;2023-05-19T06:53:32;5.70;;;2.10;;
14276;SDS011;7222;57.346;12.150;2023-05-19T06:56:00;3.83;;;2.57;;
14276;SDS011;7222;57.346;12.150;2023-05-19T06:58:27;4.43;;;2.13;;
14276;SDS011;7222;57.346;12.150;2023-05-19T07:00:53;2.40;;;2.00;;
14276;SDS011;7222;57.346;12.150;2023-05-19T07:03:20;3.63;;;2.30;;
14276;SDS011;7222;57.346;12.150;2023-05-19T07:05:48;4.80;;;2.33;;
14276;SDS011;7222;57.346;12.150;2023-05-19T07:08:16;5.13;;;2.50;;
14276;SDS011;7222;57.346;12.150;2023-05-19T07:10:45;4.20;;;2.60;;
14276;SDS011;7222;57.346;12.150;2023-05-19T07:13:12;3.60;;;2.03;;
14276;SDS011;7222;57.346;12.150;2023-05-19T07:15:42;3.63;;;2.33;;
14276;SDS011;7222;57.346;12.150;2023-05-19T07:18:09;7.30;;;2.37;;
14276;SDS011;7222;57.346;12.150;2023-05-19T07:20:37;6.77;;;2.57;;
14276;SDS011;7222;57.346;12.150;2023-05-19T07:23:03;4.93;;;2.80;;
14276;SDS011;7222;57.346;12.150;2023-05-19T07:25:30;2.97;;;2.00;;
14276;SDS011;7222;57.346;12.150;2023-05-19T07:28:00;5.50;;;2.60;;
14276;SDS011;7222;57.346;12.150;2023-05-19T07:30:27;3.70;;;2.70;;
14276;SDS011;7222;57.346;12.150;2023-05-19T07:32:54;6.90;;;2.47;;
14276;SDS011;7222;57.346;12.150;2023-05-19T07:35:21;5.30;;;2.90;;
14276;SDS011;7222;57.346;12.150;2023-05-19T07:37:48;6.53;;;2.40;;
14276;SDS011;7222;57.346;12.150;2023-05-19T07:40:16;3.87;;;2.30;;
14276;SDS011;7222;57.346;12.150;2023-05-19T07:42:43;5.10;;;2.73;;
14276;SDS011;7222;57.346;12.150;2023-05-19T07:45:12;4.57;;;2.30;;
14276;SDS011;7222;57.346;12.150;2023-05-19T07:47:39;6.70;;;2.60;;
14276;SDS011;7222;57.346;12.150;2023-05-19T07:50:06;4.27;;;2.50;;
14276;SDS011;7222;57.346;12.150;2023-05-19T07:52:34;2.90;;;2.37;;
14276;SDS011;7222;57.346;12.150;2023-05-19T07:55:01;6.00;;;2.20;;
14276;SDS011;7222;57.346;12.150;2023-05-19T07:57:28;2.90;;;1.97;;
14276;SDS011;7222;57.346;12.150;2023-05-19T07:59:56;4.27;;;2.30;;
14276;SDS011;7222;57.346;12.150;2023-05-19T08:02:25;6.10;;;2.13;;
14276;SDS011;7222;57.346;12.150;2023-05-19T08:04:52;6.27;;;2.53;;
14276;SDS011;7222;57.346;12.150;2023-05-19T08:07:20;6.50;;;2.70;;
14276;SDS011;7222;57.346;12.150;2023-05-19T08:09:47;5.93;;;2.53;;
14276;SDS011;7222;57.346;12.150;2023-05-19T08:12:14;4.00;;;2.60;;
14276;SDS011;7222;57.346;12.150;2023-05-19T08:14:41;4.53;;;2.67;;
14276;SDS011;7222;57.346;12.150;2023-05-19T08:17:09;5.93;;;2.40;;
14276;SDS011;7222;57.346;12.150;2023-05-19T08:19:37;5.90;;;2.70;;
14276;SDS011;7222;57.346;12.150;2023-05-19T08:22:04;4.70;;;2.50;;
14276;SDS011;7222;57.346;12.150;2023-05-19T08:24:31;7.60;;;2.83;;
14276;SDS011;7222;57.346;12.150;2023-05-19T08:26:58;4.67;;;2.47;;
14276;SDS011;7222;57.346;12.150;2023-05-19T08:29:26;6.60;;;2.10;;
14276;SDS011;7222;57.346;12.150;2023-05-19T08:31:53;2.80;;;2.27;;
14276;SDS011;7222;57.346;12.150;2023-05-19T08:34:22;2.97;;;2.20;;
14276;SDS011;7222;57.346;12.150;2023-05-19T08:36:51;3.17;;;2.53;;
14276;SDS011;7222;57.346;12.150;2023-05-19T08:39:21;4.60;;;2.50;;
14276;SDS011;7222;57.346;12.150;2023-05-19T08:41:51;3.03;;;2.20;;
14276;SDS011;7222;57.346;12.150;2023-05-19T08:44:18;5.03;;;2.40;;
14276;SDS011;7222;57.346;12.150;2023-05-19T08:46:45;4.23;;;2.43;;
14276;SDS011;7222;57.346;12.150;2023-05-19T08:49:13;5.57;;;2.43;;
14276;SDS011;7222;57.346;12.150;2023-05-19T08:51:49;3.50;;;2.13;;
14276;SDS011;7222;57.346;12.150;2023-05-19T08:54:27;4.47;;;2.20;;
14276;SDS011;7222;57.346;12.150;2023-05-19T08:56:59;5.93;;;2.60;;
14276;SDS011;7222;57.346;12.150;2023-05-19T08:59:27;5.70;;;2.40;;
14276;SDS011;7222;57.346;12.150;2023-05-19T09:01:55;3.90;;;2.80;;
14276;SDS011;7222;57.346;12.150;2023-05-19T09:04:23;3.67;;;1.90;;
14276;SDS011;7222;57.346;12.150;2023-05-19T09:06:52;4.27;;;2.23;;
14276;SDS011;7222;57.346;12.150;2023-05-19T09:09:20;4.87;;;2.50;;
14276;SDS011;7222;57.346;12.150;2023-05-19T09:11:47;4.10;;;2.20;;
14276;SDS011;7222;57.346;12.150;2023-05-19T09:14:15;2.93;;;2.13;;
14276;SDS011;7222;57.346;12.150;2023-05-19T09:16:42;4.13;;;2.60;;
14276;SDS011;7222;57.346;12.150;2023-05-19T09:19:14;5.80;;;3.27;;
14276;SDS011;7222;57.346;12.150;2023-05-19T09:21:42;3.23;;;2.03;;
14276;SDS011;7222;57.346;12.150;2023-05-19T09:24:09;3.73;;;1.83;;
14276;SDS011;7222;57.346;12.150;2023-05-19T09:26:38;3.83;;;2.50;;
14276;SDS011;7222;57.346;12.150;2023-05-19T09:29:09;4.90;;;2.73;;
14276;SDS011;7222;57.346;12.150;2023-05-19T09:31:37;2.60;;;1.73;;
14276;SDS011;7222;57.346;12.150;2023-05-19T09:34:10;4.53;;;2.50;;
14276;SDS011;7222;57.346;12.150;2023-05-19T09:36:38;6.43;;;2.60;;
14276;SDS011;7222;57.346;12.150;2023-05-19T09:39:11;8.37;;;2.50;;
14276;SDS011;7222;57.346;12.150;2023-05-19T09:41:40;4.83;;;2.40;;
14276;SDS011;7222;57.346;12.150;2023-05-19T09:44:11;2.87;;;2.03;;
14276;SDS011;7222;57.346;12.150;2023-05-19T09:46:46;3.33;;;2.10;;
14276;SDS011;7222;57.346;12.150;2023-05-19T09:49:17;4.93;;;2.17;;
14276;SDS011;7222;57.346;12.150;2023-05-19T09:51:47;4.80;;;2.30;;
14276;SDS011;7222;57.346;12.150;2023-05-19T09:54:15;4.10;;;2.13;;
14276;SDS011;7222;57.346;12.150;2023-05-19T09:56:44;2.97;;;1.83;;
14276;SDS011;7222;57.346;12.150;2023-05-19T09:59:11;5.30;;;2.47;;
14276;SDS011;7222;57.346;12.150;2023-05-19T10:01:40;5.63;;;2.90;;
14276;SDS011;7222;57.346;12.150;2023-05-19T10:04:10;4.50;;;2.40;;
14276;SDS011;7222;57.346;12.150;2023-05-19T10:06:40;4.80;;;2.53;;
14276;SDS011;7222;57.346;12.150;2023-05-19T10:09:07;6.70;;;2.80;;
14276;SDS011;7222;57.346;12.150;2023-05-19T10:11:35;5.40;;;2.67;;
14276;SDS011;7222;57.346;12.150;2023-05-19T10:14:03;6.20;;;2.90;;
14276;SDS011;7222;57.346;12.150;2023-05-19T10:16:31;4.03;;;2.50;;
14276;SDS011;7222;57.346;12.150;2023-05-19T10:18:58;6.93;;;3.13;;
14276;SDS011;7222;57.346;12.150;2023-05-19T10:21:26;6.07;;;3.00;;
14276;SDS011;7222;57.346;12.150;2023-05-19T10:23:53;5.50;;;2.80;;
14276;SDS011;7222;57.346;12.150;2023-05-19T10:26:20;8.53;;;2.93;;
14276;SDS011;7222;57.346;12.150;2023-05-19T10:28:48;4.80;;;2.60;;
14276;SDS011;7222;57.346;12.150;2023-05-19T10:31:18;5.60;;;2.90;;
14276;SDS011;7222;57.346;12.150;2023-05-19T10:36:41;3.90;;;2.27;;
14276;SDS011;7222;57.346;12.150;2023-05-19T10:39:14;3.00;;;2.27;;
14276;SDS011;7222;57.346;12.150;2023-05-19T10:41:45;3.93;;;2.27;;
14276;SDS011;7222;57.346;12.150;2023-05-19T10:44:19;4.27;;;2.40;;
14276;SDS011;7222;57.346;12.150;2023-05-19T10:46:56;3.40;;;2.17;;
14276;SDS011;7222;57.346;12.150;2023-05-19T10:49:23;4.50;;;2.23;;
14276;SDS011;7222;57.346;12.150;2023-05-19T10:51:50;4.53;;;2.03;;
14276;SDS011;7222;57.346;12.150;2023-05-19T10:57:07;7.23;;;2.90;;
14276;SDS011;7222;57.346;12.150;2023-05-19T10:59:36;4.50;;;2.17;;
14276;SDS011;7222;57.346;12.150;2023-05-19T11:02:05;4.87;;;2.00;;
14276;SDS011;7222;57.346;12.150;2023-05-19T11:04:44;4.57;;;2.50;;
14276;SDS011;7222;57.346;12.150;2023-05-19T11:07:15;5.17;;;2.40;;
14276;SDS011;7222;57.346;12.150;2023-05-19T11:09:46;4.33;;;2.30;;
14276;SDS011;7222;57.346;12.150;2023-05-19T11:12:18;4.03;;;2.30;;
14276;SDS011;7222;57.346;12.150;2023-05-19T11:14:46;3.90;;;2.57;;
14276;SDS011;7222;57.346;12.150;2023-05-19T11:17:14;4.37;;;2.27;;
14276;SDS011;7222;57.346;12.150;2023-05-19T11:19:50;4.40;;;2.10;;
14276;SDS011;7222;57.346;12.150;2023-05-19T11:22:21;2.37;;;2.10;;
14276;SDS011;7222;57.346;12.150;2023-05-19T11:24:49;6.73;;;2.77;;
14276;SDS011;7222;57.346;12.150;2023-05-19T11:27:19;4.10;;;2.67;;
14276;SDS011;7222;57.346;12.150;2023-05-19T11:29:47;4.87;;;2.37;;
14276;SDS011;7222;57.346;12.150;2023-05-19T11:32:18;5.27;;;2.70;;
14276;SDS011;7222;57.346;12.150;2023-05-19T11:34:46;5.87;;;2.80;;
14276;SDS011;7222;57.346;12.150;2023-05-19T11:37:14;4.77;;;2.33;;
14276;SDS011;7222;57.346;12.150;2023-05-19T11:39:41;3.67;;;2.30;;
14276;SDS011;7222;57.346;12.150;2023-05-19T11:42:10;2.83;;;1.97;;
14276;SDS011;7222;57.346;12.150;2023-05-19T11:44:37;5.13;;;2.50;;
14276;SDS011;7222;57.346;12.150;2023-05-19T11:47:05;5.30;;;2.30;;
14276;SDS011;7222;57.346;12.150;2023-05-19T11:49:34;4.57;;;2.67;;
14276;SDS011;7222;57.346;12.150;2023-05-19T11:52:01;4.57;;;2.77;;
14276;SDS011;7222;57.346;12.150;2023-05-19T11:54:29;5.93;;;2.60;;
14276;SDS011;7222;57.346;12.150;2023-05-19T11:56:58;3.50;;;2.30;;
14276;SDS011;7222;57.346;12.150;2023-05-19T11:59:30;4.77;;;2.40;;
14276;SDS011;7222;57.346;12.150;2023-05-19T12:02:02;4.63;;;2.50;;
14276;SDS011;7222;57.346;12.150;2023-05-19T12:04:43;2.23;;;2.00;;
14276;SDS011;7222;57.346;12.150;2023-05-19T12:07:11;4.03;;;2.20;;
14276;SDS011;7222;57.346;12.150;2023-05-19T12:09:41;2.80;;;2.50;;
14276;SDS011;7222;57.346;12.150;2023-05-19T12:12:11;3.43;;;2.83;;
14276;SDS011;7222;57.346;12.150;2023-05-19T12:14:38;3.23;;;2.50;;
14276;SDS011;7222;57.346;12.150;2023-05-19T12:17:09;2.27;;;2.07;;
14276;SDS011;7222;57.346;12.150;2023-05-19T12:19:37;2.80;;;2.00;;
14276;SDS011;7222;57.346;12.150;2023-05-19T12:22:06;3.33;;;2.60;;
14276;SDS011;7222;57.346;12.150;2023-05-19T12:24:34;2.67;;;2.47;;
14276;SDS011;7222;57.346;12.150;2023-05-19T12:27:08;4.47;;;2.90;;
14276;SDS011;7222;57.346;12.150;2023-05-19T12:29:37;3.30;;;2.47;;
14276;SDS011;7222;57.346;12.150;2023-05-19T12:32:04;3.43;;;2.57;;
14276;SDS011;7222;57.346;12.150;2023-05-19T12:34:34;4.27;;;2.70;;
14276;SDS011;7222;57.346;12.150;2023-05-19T12:37:02;5.43;;;2.87;;
14276;SDS011;7222;57.346;12.150;2023-05-19T12:39:31;3.33;;;2.33;;
14276;SDS011;7222;57.346;12.150;2023-05-19T12:42:02;2.50;;;2.30;;
14276;SDS011;7222;57.346;12.150;2023-05-19T12:44:29;3.27;;;2.40;;
14276;SDS011;7222;57.346;12.150;2023-05-19T12:46:56;4.43;;;2.40;;
14276;SDS011;7222;57.346;12.150;2023-05-19T12:49:24;2.43;;;2.27;;
14276;SDS011;7222;57.346;12.150;2023-05-19T12:51:51;3.40;;;2.83;;
14276;SDS011;7222;57.346;12.150;2023-05-19T12:54:19;2.63;;;2.40;;
14276;SDS011;7222;57.346;12.150;2023-05-19T12:56:51;4.10;;;2.63;;
14276;SDS011;7222;57.346;12.150;2023-05-19T12:59:21;2.47;;;2.27;;
14276;SDS011;7222;57.346;12.150;2023-05-19T13:01:55;3.97;;;2.60;;
14276;SDS011;7222;57.346;12.150;2023-05-19T13:04:22;2.93;;;2.50;;
14276;SDS011;7222;57.346;12.150;2023-05-19T13:06:50;3.20;;;2.57;;
14276;SDS011;7222;57.346;12.150;2023-05-19T13:09:18;3.83;;;3.00;;
14276;SDS011;7222;57.346;12.150;2023-05-19T13:11:45;2.80;;;2.60;;
14276;SDS011;7222;57.346;12.150;2023-05-19T13:14:17;3.30;;;2.50;;
14276;SDS011;7222;57.346;12.150;2023-05-19T13:16:44;2.60;;;2.40;;
14276;SDS011;7222;57.346;12.150;2023-05-19T13:19:12;3.07;;;2.37;;
14276;SDS011;7222;57.346;12.150;2023-05-19T13:21:40;2.77;;;2.30;;
14276;SDS011;7222;57.346;12.150;2023-05-19T13:24:07;2.23;;;2.03;;
14276;SDS011;7222;57.346;12.150;2023-05-19T13:26:34;2.30;;;2.20;;
14276;SDS011;7222;57.346;12.150;2023-05-19T13:29:01;2.50;;;2.10;;
14276;SDS011;7222;57.346;12.150;2023-05-19T13:31:29;2.53;;;2.10;;
14276;SDS011;7222;57.346;12.150;2023-05-19T13:33:56;2.93;;;2.50;;
14276;SDS011;7222;57.346;12.150;2023-05-19T13:36:24;1.80;;;1.70;;
14276;SDS011;7222;57.346;12.150;2023-05-19T13:38:51;2.80;;;2.10;;
14276;SDS011;7222;57.346;12.150;2023-05-19T13:41:21;3.40;;;2.33;;
14276;SDS011;7222;57.346;12.150;2023-05-19T13:43:50;4.00;;;2.50;;
14276;SDS011;7222;57.346;12.150;2023-05-19T13:46:17;2.73;;;2.53;;
14276;SDS011;7222;57.346;12.150;2023-05-19T13:48:46;2.87;;;2.57;;
14276;SDS011;7222;57.346;12.150;2023-05-19T13:51:13;4.73;;;2.70;;
14276;SDS011;7222;57.346;12.150;2023-05-19T13:53:39;5.27;;;3.13;;
14276;SDS011;7222;57.346;12.150;2023-05-19T13:56:07;2.73;;;2.50;;
14276;SDS011;7222;57.346;12.150;2023-05-19T13:58:33;5.50;;;2.50;;
14276;SDS011;7222;57.346;12.150;2023-05-19T14:01:00;3.17;;;2.40;;
14276;SDS011;7222;57.346;12.150;2023-05-19T14:03:27;3.17;;;2.20;;
14276;SDS011;7222;57.346;12.150;2023-05-19T14:05:56;4.30;;;2.87;;
14276;SDS011;7222;57.346;12.150;2023-05-19T14:08:23;2.73;;;2.40;;
14276;SDS011;7222;57.346;12.150;2023-05-19T14:10:50;3.03;;;2.33;;
14276;SDS011;7222;57.346;12.150;2023-05-19T14:13:17;2.80;;;2.60;;
14276;SDS011;7222;57.346;12.150;2023-05-19T14:15:44;3.03;;;2.27;;
14276;SDS011;7222;57.346;12.150;2023-05-19T14:18:12;3.43;;;2.60;;
14276;SDS011;7222;57.346;12.150;2023-05-19T14:20:40;2.80;;;2.50;;
14276;SDS011;7222;57.346;12.150;2023-05-19T14:23:08;3.17;;;2.37;;
14276;SDS011;7222;57.346;12.150;2023-05-19T14:25:35;2.43;;;2.17;;
14276;SDS011;7222;57.346;12.150;2023-05-19T14:28:02;2.77;;;2.17;;
14276;SDS011;7222;57.346;12.150;2023-05-19T14:30:29;2.37;;;2.17;;
14276;SDS011;7222;57.346;12.150;2023-05-19T14:32:56;3.33;;;2.43;;
14276;SDS011;7222;57.346;12.150;2023-05-19T14:35:23;2.13;;;1.93;;
14276;SDS011;7222;57.346;12.150;2023-05-19T14:37:50;2.33;;;2.13;;
14276;SDS011;7222;57.346;12.150;2023-05-19T14:40:19;3.10;;;2.30;;
14276;SDS011;7222;57.346;12.150;2023-05-19T14:42:46;3.23;;;2.10;;
14276;SDS011;7222;57.346;12.150;2023-05-19T14:45:13;2.40;;;2.20;;
14276;SDS011;7222;57.346;12.150;2023-05-19T14:47:40;2.90;;;2.00;;
14276;SDS011;7222;57.346;12.150;2023-05-19T14:50:07;2.70;;;2.07;;
14276;SDS011;7222;57.346;12.150;2023-05-19T14:52:34;3.53;;;2.00;;
14276;SDS011;7222;57.346;12.150;2023-05-19T14:55:01;3.07;;;1.83;;
14276;SDS011;7222;57.346;12.150;2023-05-19T14:57:30;2.57;;;1.90;;
14276;SDS011;7222;57.346;12.150;2023-05-19T14:59:56;3.03;;;2.13;;